Hourly Reports from 6 nearest airdromes.

 

EGHI - Southampton Wx C, United Kingdom
Distance from station: NNW 4mi, 7km
Updated: Fri, 19-Apr-2019 05:50 BST
Clear
Clear
 Wind from N
Wind: N 6 mph , 9 km/h
Temperature: 8°C
Wind Chill: 6°C
Dew Point: 4°C
Humidity: 76%
Barometer: 1026 hPa
Summary: Clear
Visibility: greater than 7 miles , 10 km
2019/04/19 04:50 EGHI 190450Z 01005KT CAVOK 08/04 Q1026
EGVP - Middle Wallop, United Kingdom
Distance from station: NW 20mi, 32km
Updated: Fri, 19-Apr-2019 05:50 BST
Clear
Clear
 Wind from NE
Wind: NE 3 mph , 6 km/h
Temperature: 10°C
Dew Point: 5°C
Humidity: 71%
Barometer: 1026 hPa
Clouds: Clear
Visibility: 6 miles , 10 km
2019/04/19 04:50 EGVP 190450Z AUTO 04003KT 9999 // NCD 10/05 Q1026
 
EGHH - Bournemouth Airp, United Kingdom
Distance from station: WSW 25mi, 40km
Updated: Fri, 19-Apr-2019 05:50 BST
Partly Cloudy
Partly Cloudy
 Wind from varies
Wind: varies 6 mph , 9 km/h
Temperature: 9°C
Wind Chill: 7°C
Dew Point: 6°C
Humidity: 82%
Barometer: 1025 hPa
Clouds: Partly Cloudy
Visibility: 6 miles , 9 km
2019/04/19 04:50 EGHH 190450Z VRB05KT 9000 NSC 09/06 Q1025
EGDM - Boscombe Down, United Kingdom
Distance from station: NW 27mi, 43km
Updated: Fri, 19-Apr-2019 05:50 BST
Few Clouds
Few Clouds
 Wind from NNE
Wind: NNE 7 mph , 11 km/h
Temperature: 9°C
Wind Chill: 7°C
Dew Point: 5°C
Humidity: 76%
Barometer: 1026 hPa
Clouds: Few Clouds
Visibility: 6 miles , 10 km
Cloud details: Few Clouds 6706 m
2019/04/19 04:50 EGDM 190450Z AUTO 02006KT 9999 FEW220/// 09/05 Q1026
 
EGVO - Odiham Raf, United Kingdom
Distance from station: NNE 28mi, 44km
Updated: Fri, 19-Apr-2019 05:50 BST
Haze, Clear
Haze, Clear
 Wind from NW
Wind: NW 3 mph , 6 km/h
Temperature: 7°C
Dew Point: 5°C
Humidity: 87%
Barometer: 1026 hPa
Summary: Haze
Clouds: Clear
Visibility: 5 miles , 8 km
2019/04/19 04:50 EGVO 190450Z AUTO 31003KT 8000 HZ NCD 07/05 Q1026
EGLF - Farnborough, United Kingdom
Distance from station: NE 35mi, 57km
Updated: Fri, 19-Apr-2019 05:20 BST
Clear
Clear
 Wind from SSW
Wind: SSW 3 mph , 6 km/h
Temperature: 4°C
Dew Point: 3°C
Humidity: 93%
Barometer: 1026 hPa
Clouds: Clear
Visibility: 4 miles , 6 km
2019/04/19 04:20 EGLF 190420Z AUTO 21003KT 6000 NCD 04/03 Q1026

Metar display script from Saratoga-Weather.org